sensor_id;sensor_type;location;lat;lon;timestamp;P1;durP1;ratioP1;P2;durP2;ratioP2
60336;SDS011;46978;50.288;28.624;2023-02-20T00:00:31;5.05;;;2.40;;
60336;SDS011;46978;50.288;28.624;2023-02-20T00:01:34;5.39;;;2.21;;
60336;SDS011;46978;50.288;28.624;2023-02-20T00:02:36;5.34;;;2.26;;
60336;SDS011;46978;50.288;28.624;2023-02-20T00:03:38;5.32;;;2.37;;
60336;SDS011;46978;50.288;28.624;2023-02-20T00:04:40;7.13;;;2.56;;
60336;SDS011;46978;50.288;28.624;2023-02-20T00:05:41;5.41;;;2.48;;
60336;SDS011;46978;50.288;28.624;2023-02-20T00:06:44;3.89;;;2.18;;
60336;SDS011;46978;50.288;28.624;2023-02-20T00:07:46;7.23;;;2.32;;
60336;SDS011;46978;50.288;28.624;2023-02-20T00:08:48;5.27;;;2.27;;
60336;SDS011;46978;50.288;28.624;2023-02-20T00:09:49;4.70;;;2.30;;
60336;SDS011;46978;50.288;28.624;2023-02-20T00:10:51;4.03;;;1.96;;
60336;SDS011;46978;50.288;28.624;2023-02-20T00:11:53;4.18;;;1.93;;
60336;SDS011;46978;50.288;28.624;2023-02-20T00:12:54;4.71;;;2.17;;
60336;SDS011;46978;50.288;28.624;2023-02-20T00:13:56;4.47;;;2.11;;
60336;SDS011;46978;50.288;28.624;2023-02-20T00:14:58;4.30;;;1.95;;
60336;SDS011;46978;50.288;28.624;2023-02-20T00:16:00;5.02;;;2.36;;
60336;SDS011;46978;50.288;28.624;2023-02-20T00:17:01;4.79;;;2.39;;
60336;SDS011;46978;50.288;28.624;2023-02-20T00:18:03;4.71;;;2.18;;
60336;SDS011;46978;50.288;28.624;2023-02-20T00:19:05;5.71;;;2.21;;
60336;SDS011;46978;50.288;28.624;2023-02-20T00:20:07;5.45;;;2.19;;
60336;SDS011;46978;50.288;28.624;2023-02-20T00:21:09;7.16;;;2.48;;
60336;SDS011;46978;50.288;28.624;2023-02-20T00:22:11;4.60;;;2.14;;
60336;SDS011;46978;50.288;28.624;2023-02-20T00:23:12;6.01;;;2.36;;
60336;SDS011;46978;50.288;28.624;2023-02-20T00:24:14;4.04;;;1.90;;
60336;SDS011;46978;50.288;28.624;2023-02-20T00:25:17;4.72;;;2.48;;
60336;SDS011;46978;50.288;28.624;2023-02-20T00:26:20;5.03;;;1.83;;
60336;SDS011;46978;50.288;28.624;2023-02-20T00:27:21;6.25;;;1.96;;
60336;SDS011;46978;50.288;28.624;2023-02-20T00:28:23;4.85;;;2.05;;
60336;SDS011;46978;50.288;28.624;2023-02-20T00:29:25;5.36;;;2.07;;
60336;SDS011;46978;50.288;28.624;2023-02-20T00:30:27;5.39;;;2.30;;
60336;SDS011;46978;50.288;28.624;2023-02-20T00:31:29;5.37;;;2.09;;
60336;SDS011;46978;50.288;28.624;2023-02-20T00:32:30;4.74;;;2.20;;
60336;SDS011;46978;50.288;28.624;2023-02-20T00:33:32;3.28;;;1.87;;
60336;SDS011;46978;50.288;28.624;2023-02-20T00:34:33;5.78;;;2.08;;
60336;SDS011;46978;50.288;28.624;2023-02-20T00:35:35;4.58;;;2.05;;
60336;SDS011;46978;50.288;28.624;2023-02-20T00:36:37;6.84;;;2.49;;
60336;SDS011;46978;50.288;28.624;2023-02-20T00:37:38;4.91;;;2.03;;
60336;SDS011;46978;50.288;28.624;2023-02-20T00:38:41;3.81;;;1.82;;
60336;SDS011;46978;50.288;28.624;2023-02-20T00:39:43;4.31;;;1.92;;
60336;SDS011;46978;50.288;28.624;2023-02-20T00:40:45;5.26;;;2.25;;
60336;SDS011;46978;50.288;28.624;2023-02-20T00:41:47;3.76;;;1.91;;
60336;SDS011;46978;50.288;28.624;2023-02-20T00:42:49;4.68;;;2.14;;
60336;SDS011;46978;50.288;28.624;2023-02-20T00:43:51;6.59;;;2.40;;
60336;SDS011;46978;50.288;28.624;2023-02-20T00:44:52;4.75;;;2.03;;
60336;SDS011;46978;50.288;28.624;2023-02-20T00:45:54;4.17;;;1.97;;
60336;SDS011;46978;50.288;28.624;2023-02-20T00:46:56;4.51;;;1.95;;
60336;SDS011;46978;50.288;28.624;2023-02-20T00:47:57;4.30;;;1.78;;
60336;SDS011;46978;50.288;28.624;2023-02-20T00:48:59;4.94;;;2.38;;
60336;SDS011;46978;50.288;28.624;2023-02-20T00:50:01;4.49;;;2.29;;
60336;SDS011;46978;50.288;28.624;2023-02-20T00:51:03;4.63;;;1.95;;
60336;SDS011;46978;50.288;28.624;2023-02-20T00:52:04;5.01;;;1.93;;
60336;SDS011;46978;50.288;28.624;2023-02-20T00:53:06;6.46;;;2.31;;
60336;SDS011;46978;50.288;28.624;2023-02-20T00:54:08;3.29;;;1.71;;
60336;SDS011;46978;50.288;28.624;2023-02-20T00:55:09;4.79;;;1.98;;
60336;SDS011;46978;50.288;28.624;2023-02-20T00:56:13;3.92;;;2.00;;
60336;SDS011;46978;50.288;28.624;2023-02-20T00:57:15;4.93;;;2.09;;
60336;SDS011;46978;50.288;28.624;2023-02-20T00:58:17;5.64;;;2.23;;
60336;SDS011;46978;50.288;28.624;2023-02-20T00:59:18;5.40;;;2.22;;
60336;SDS011;46978;50.288;28.624;2023-02-20T01:00:22;4.04;;;1.99;;
60336;SDS011;46978;50.288;28.624;2023-02-20T01:01:26;4.85;;;2.54;;
60336;SDS011;46978;50.288;28.624;2023-02-20T01:02:28;6.05;;;2.07;;
60336;SDS011;46978;50.288;28.624;2023-02-20T01:03:29;5.32;;;2.11;;
60336;SDS011;46978;50.288;28.624;2023-02-20T01:04:31;4.31;;;2.20;;
60336;SDS011;46978;50.288;28.624;2023-02-20T01:05:33;4.50;;;2.12;;
60336;SDS011;46978;50.288;28.624;2023-02-20T01:06:34;4.72;;;2.16;;
60336;SDS011;46978;50.288;28.624;2023-02-20T01:07:36;3.85;;;2.00;;
60336;SDS011;46978;50.288;28.624;2023-02-20T01:08:38;5.26;;;2.29;;
60336;SDS011;46978;50.288;28.624;2023-02-20T01:09:39;4.42;;;2.06;;
60336;SDS011;46978;50.288;28.624;2023-02-20T01:10:41;6.63;;;2.18;;
60336;SDS011;46978;50.288;28.624;2023-02-20T01:11:43;4.31;;;1.85;;
60336;SDS011;46978;50.288;28.624;2023-02-20T01:12:46;5.65;;;2.14;;
60336;SDS011;46978;50.288;28.624;2023-02-20T01:13:47;6.39;;;2.37;;
60336;SDS011;46978;50.288;28.624;2023-02-20T01:14:49;4.16;;;2.16;;
60336;SDS011;46978;50.288;28.624;2023-02-20T01:15:51;6.11;;;2.34;;
60336;SDS011;46978;50.288;28.624;2023-02-20T01:16:53;6.21;;;2.45;;
60336;SDS011;46978;50.288;28.624;2023-02-20T01:17:55;6.21;;;2.04;;
60336;SDS011;46978;50.288;28.624;2023-02-20T01:18:56;8.39;;;2.34;;
60336;SDS011;46978;50.288;28.624;2023-02-20T01:19:58;5.06;;;2.64;;
60336;SDS011;46978;50.288;28.624;2023-02-20T01:21:00;6.57;;;2.57;;
60336;SDS011;46978;50.288;28.624;2023-02-20T01:22:02;6.51;;;2.29;;
60336;SDS011;46978;50.288;28.624;2023-02-20T01:23:03;4.58;;;2.33;;
60336;SDS011;46978;50.288;28.624;2023-02-20T01:24:05;7.04;;;2.39;;
60336;SDS011;46978;50.288;28.624;2023-02-20T01:25:07;5.42;;;2.59;;
60336;SDS011;46978;50.288;28.624;2023-02-20T01:26:09;4.86;;;2.36;;
60336;SDS011;46978;50.288;28.624;2023-02-20T01:27:11;7.01;;;2.71;;
60336;SDS011;46978;50.288;28.624;2023-02-20T01:28:13;8.19;;;2.63;;
60336;SDS011;46978;50.288;28.624;2023-02-20T01:29:15;4.70;;;2.55;;
60336;SDS011;46978;50.288;28.624;2023-02-20T01:30:18;5.56;;;2.82;;
60336;SDS011;46978;50.288;28.624;2023-02-20T01:31:19;4.41;;;2.21;;
60336;SDS011;46978;50.288;28.624;2023-02-20T01:32:21;5.73;;;2.25;;
60336;SDS011;46978;50.288;28.624;2023-02-20T01:33:23;6.26;;;2.35;;
60336;SDS011;46978;50.288;28.624;2023-02-20T01:34:25;4.83;;;2.21;;
60336;SDS011;46978;50.288;28.624;2023-02-20T01:35:26;5.83;;;2.15;;
60336;SDS011;46978;50.288;28.624;2023-02-20T01:36:28;5.63;;;2.11;;
60336;SDS011;46978;50.288;28.624;2023-02-20T01:37:30;4.87;;;2.48;;
60336;SDS011;46978;50.288;28.624;2023-02-20T01:38:33;4.45;;;2.18;;
60336;SDS011;46978;50.288;28.624;2023-02-20T01:39:34;5.29;;;2.65;;
60336;SDS011;46978;50.288;28.624;2023-02-20T01:40:36;5.89;;;2.26;;
60336;SDS011;46978;50.288;28.624;2023-02-20T01:41:38;6.06;;;2.15;;
60336;SDS011;46978;50.288;28.624;2023-02-20T01:42:40;5.46;;;2.06;;
60336;SDS011;46978;50.288;28.624;2023-02-20T01:43:41;4.74;;;2.29;;
60336;SDS011;46978;50.288;28.624;2023-02-20T01:44:43;4.69;;;2.16;;
60336;SDS011;46978;50.288;28.624;2023-02-20T01:45:45;5.68;;;2.23;;
60336;SDS011;46978;50.288;28.624;2023-02-20T01:46:56;6.22;;;2.86;;
60336;SDS011;46978;50.288;28.624;2023-02-20T01:47:58;6.34;;;2.78;;
60336;SDS011;46978;50.288;28.624;2023-02-20T01:49:05;6.35;;;2.38;;
60336;SDS011;46978;50.288;28.624;2023-02-20T01:50:09;4.61;;;2.31;;
60336;SDS011;46978;50.288;28.624;2023-02-20T01:51:12;6.35;;;2.48;;
60336;SDS011;46978;50.288;28.624;2023-02-20T01:53:20;5.74;;;2.36;;
60336;SDS011;46978;50.288;28.624;2023-02-20T01:54:25;5.72;;;2.58;;
60336;SDS011;46978;50.288;28.624;2023-02-20T01:55:35;4.82;;;2.12;;
60336;SDS011;46978;50.288;28.624;2023-02-20T01:56:38;3.98;;;2.01;;
60336;SDS011;46978;50.288;28.624;2023-02-20T01:57:42;5.12;;;2.01;;
60336;SDS011;46978;50.288;28.624;2023-02-20T01:58:47;5.17;;;2.00;;
60336;SDS011;46978;50.288;28.624;2023-02-20T01:59:51;4.54;;;2.09;;
60336;SDS011;46978;50.288;28.624;2023-02-20T02:00:56;4.04;;;1.90;;
60336;SDS011;46978;50.288;28.624;2023-02-20T02:02:00;4.45;;;2.15;;
60336;SDS011;46978;50.288;28.624;2023-02-20T02:04:08;5.13;;;2.39;;
60336;SDS011;46978;50.288;28.624;2023-02-20T02:05:13;5.51;;;2.51;;
60336;SDS011;46978;50.288;28.624;2023-02-20T02:06:17;5.26;;;2.33;;
60336;SDS011;46978;50.288;28.624;2023-02-20T02:07:19;3.95;;;2.09;;
60336;SDS011;46978;50.288;28.624;2023-02-20T02:08:21;4.57;;;2.29;;
60336;SDS011;46978;50.288;28.624;2023-02-20T02:11:27;7.65;;;2.42;;
60336;SDS011;46978;50.288;28.624;2023-02-20T02:11:58;5.02;;;2.23;;
60336;SDS011;46978;50.288;28.624;2023-02-20T02:13:00;3.64;;;1.87;;
60336;SDS011;46978;50.288;28.624;2023-02-20T02:14:02;4.69;;;2.21;;
60336;SDS011;46978;50.288;28.624;2023-02-20T02:15:12;5.59;;;2.57;;
60336;SDS011;46978;50.288;28.624;2023-02-20T02:22:59;4.31;;;1.97;;
60336;SDS011;46978;50.288;28.624;2023-02-20T02:32:02;4.08;;;1.88;;
60336;SDS011;46978;50.288;28.624;2023-02-20T02:33:13;4.09;;;2.13;;
60336;SDS011;46978;50.288;28.624;2023-02-20T02:37:22;4.60;;;2.12;;
60336;SDS011;46978;50.288;28.624;2023-02-20T02:38:46;4.34;;;2.16;;
60336;SDS011;46978;50.288;28.624;2023-02-20T02:39:53;5.66;;;2.28;;
60336;SDS011;46978;50.288;28.624;2023-02-20T02:44:48;4.97;;;2.44;;
60336;SDS011;46978;50.288;28.624;2023-02-20T02:46:05;5.41;;;2.54;;
60336;SDS011;46978;50.288;28.624;2023-02-20T02:47:06;6.31;;;2.39;;
60336;SDS011;46978;50.288;28.624;2023-02-20T02:48:19;5.55;;;2.31;;
60336;SDS011;46978;50.288;28.624;2023-02-20T02:49:25;4.51;;;1.99;;
60336;SDS011;46978;50.288;28.624;2023-02-20T02:50:33;4.59;;;2.21;;
60336;SDS011;46978;50.288;28.624;2023-02-20T02:51:37;6.15;;;2.00;;
60336;SDS011;46978;50.288;28.624;2023-02-20T02:52:42;4.30;;;2.15;;
60336;SDS011;46978;50.288;28.624;2023-02-20T02:56:19;4.32;;;1.96;;
60336;SDS011;46978;50.288;28.624;2023-02-20T02:57:25;4.09;;;1.84;;
60336;SDS011;46978;50.288;28.624;2023-02-20T02:58:26;4.16;;;2.07;;
60336;SDS011;46978;50.288;28.624;2023-02-20T02:59:29;4.51;;;1.83;;
60336;SDS011;46978;50.288;28.624;2023-02-20T03:00:41;5.24;;;2.01;;
60336;SDS011;46978;50.288;28.624;2023-02-20T03:01:50;5.67;;;2.19;;
60336;SDS011;46978;50.288;28.624;2023-02-20T03:04:24;4.94;;;1.96;;
60336;SDS011;46978;50.288;28.624;2023-02-20T03:05:31;5.20;;;1.96;;
60336;SDS011;46978;50.288;28.624;2023-02-20T03:06:38;4.43;;;2.04;;
60336;SDS011;46978;50.288;28.624;2023-02-20T03:07:42;3.73;;;1.60;;
60336;SDS011;46978;50.288;28.624;2023-02-20T03:09:59;4.57;;;2.31;;
60336;SDS011;46978;50.288;28.624;2023-02-20T03:12:16;4.36;;;2.08;;
60336;SDS011;46978;50.288;28.624;2023-02-20T03:13:20;6.23;;;2.00;;
60336;SDS011;46978;50.288;28.624;2023-02-20T03:14:22;3.92;;;1.93;;
60336;SDS011;46978;50.288;28.624;2023-02-20T03:15:31;5.22;;;2.38;;
60336;SDS011;46978;50.288;28.624;2023-02-20T03:19:13;5.86;;;3.19;;
60336;SDS011;46978;50.288;28.624;2023-02-20T03:20:20;5.57;;;3.41;;
60336;SDS011;46978;50.288;28.624;2023-02-20T03:21:23;4.99;;;2.44;;
60336;SDS011;46978;50.288;28.624;2023-02-20T03:22:28;5.36;;;2.71;;
60336;SDS011;46978;50.288;28.624;2023-02-20T03:23:39;6.76;;;2.60;;
60336;SDS011;46978;50.288;28.624;2023-02-20T03:24:43;6.52;;;2.79;;
60336;SDS011;46978;50.288;28.624;2023-02-20T03:25:58;6.72;;;2.68;;
60336;SDS011;46978;50.288;28.624;2023-02-20T03:27:06;5.38;;;2.44;;
60336;SDS011;46978;50.288;28.624;2023-02-20T03:28:13;4.99;;;2.46;;
60336;SDS011;46978;50.288;28.624;2023-02-20T03:29:22;6.95;;;2.92;;
60336;SDS011;46978;50.288;28.624;2023-02-20T03:30:28;6.44;;;2.54;;
60336;SDS011;46978;50.288;28.624;2023-02-20T03:31:34;5.66;;;3.03;;
60336;SDS011;46978;50.288;28.624;2023-02-20T03:32:41;6.64;;;2.98;;
60336;SDS011;46978;50.288;28.624;2023-02-20T03:33:46;7.16;;;3.34;;
60336;SDS011;46978;50.288;28.624;2023-02-20T03:35:07;7.51;;;3.47;;
60336;SDS011;46978;50.288;28.624;2023-02-20T03:36:11;6.93;;;3.15;;
60336;SDS011;46978;50.288;28.624;2023-02-20T03:37:20;6.37;;;3.14;;
60336;SDS011;46978;50.288;28.624;2023-02-20T03:38:21;7.34;;;3.08;;
60336;SDS011;46978;50.288;28.624;2023-02-20T03:39:27;7.01;;;3.20;;
60336;SDS011;46978;50.288;28.624;2023-02-20T03:40:31;5.27;;;2.71;;
60336;SDS011;46978;50.288;28.624;2023-02-20T03:41:34;5.95;;;2.86;;
60336;SDS011;46978;50.288;28.624;2023-02-20T03:42:39;5.69;;;2.63;;
60336;SDS011;46978;50.288;28.624;2023-02-20T03:43:44;6.55;;;2.88;;
60336;SDS011;46978;50.288;28.624;2023-02-20T03:44:47;4.45;;;2.25;;
60336;SDS011;46978;50.288;28.624;2023-02-20T03:45:50;4.51;;;2.55;;
60336;SDS011;46978;50.288;28.624;2023-02-20T03:46:53;5.06;;;2.38;;
60336;SDS011;46978;50.288;28.624;2023-02-20T03:48:02;5.15;;;2.28;;
60336;SDS011;46978;50.288;28.624;2023-02-20T03:49:04;5.96;;;2.32;;
60336;SDS011;46978;50.288;28.624;2023-02-20T03:50:08;4.33;;;2.11;;
60336;SDS011;46978;50.288;28.624;2023-02-20T03:51:12;5.01;;;2.14;;
60336;SDS011;46978;50.288;28.624;2023-02-20T03:52:14;5.57;;;2.18;;
60336;SDS011;46978;50.288;28.624;2023-02-20T03:53:18;5.23;;;2.24;;
60336;SDS011;46978;50.288;28.624;2023-02-20T03:54:20;5.31;;;2.56;;
60336;SDS011;46978;50.288;28.624;2023-02-20T03:55:21;4.29;;;2.04;;
60336;SDS011;46978;50.288;28.624;2023-02-20T03:56:29;5.87;;;2.24;;
60336;SDS011;46978;50.288;28.624;2023-02-20T03:57:30;5.16;;;2.29;;
60336;SDS011;46978;50.288;28.624;2023-02-20T03:58:38;4.41;;;1.85;;
60336;SDS011;46978;50.288;28.624;2023-02-20T03:59:53;4.29;;;2.24;;
60336;SDS011;46978;50.288;28.624;2023-02-20T04:00:57;6.78;;;2.26;;
60336;SDS011;46978;50.288;28.624;2023-02-20T04:02:03;4.22;;;2.11;;
60336;SDS011;46978;50.288;28.624;2023-02-20T04:03:10;5.46;;;2.21;;
60336;SDS011;46978;50.288;28.624;2023-02-20T04:04:15;4.23;;;2.21;;
60336;SDS011;46978;50.288;28.624;2023-02-20T04:05:24;4.39;;;2.19;;
60336;SDS011;46978;50.288;28.624;2023-02-20T04:06:25;4.17;;;2.39;;
60336;SDS011;46978;50.288;28.624;2023-02-20T04:07:32;4.94;;;2.37;;
60336;SDS011;46978;50.288;28.624;2023-02-20T04:08:43;4.29;;;2.14;;
60336;SDS011;46978;50.288;28.624;2023-02-20T04:09:46;3.88;;;2.09;;
60336;SDS011;46978;50.288;28.624;2023-02-20T04:10:58;6.17;;;2.37;;
60336;SDS011;46978;50.288;28.624;2023-02-20T04:12:04;6.49;;;2.29;;
60336;SDS011;46978;50.288;28.624;2023-02-20T04:13:08;5.58;;;2.51;;
60336;SDS011;46978;50.288;28.624;2023-02-20T04:14:12;5.00;;;2.02;;
60336;SDS011;46978;50.288;28.624;2023-02-20T04:15:17;4.94;;;2.40;;
60336;SDS011;46978;50.288;28.624;2023-02-20T04:16:21;5.44;;;2.38;;
60336;SDS011;46978;50.288;28.624;2023-02-20T04:17:25;5.91;;;2.36;;
60336;SDS011;46978;50.288;28.624;2023-02-20T04:18:32;7.26;;;3.21;;
60336;SDS011;46978;50.288;28.624;2023-02-20T04:19:34;5.91;;;2.27;;
60336;SDS011;46978;50.288;28.624;2023-02-20T04:20:36;5.41;;;2.55;;
60336;SDS011;46978;50.288;28.624;2023-02-20T04:21:40;5.88;;;2.71;;
60336;SDS011;46978;50.288;28.624;2023-02-20T04:22:44;4.65;;;2.40;;
60336;SDS011;46978;50.288;28.624;2023-02-20T04:23:49;9.07;;;4.69;;
60336;SDS011;46978;50.288;28.624;2023-02-20T04:24:55;8.01;;;4.65;;
60336;SDS011;46978;50.288;28.624;2023-02-20T04:26:11;9.29;;;4.61;;
60336;SDS011;46978;50.288;28.624;2023-02-20T04:27:10;6.60;;;3.49;;
60336;SDS011;46978;50.288;28.624;2023-02-20T04:28:14;4.35;;;2.49;;
60336;SDS011;46978;50.288;28.624;2023-02-20T04:29:17;4.19;;;2.27;;
60336;SDS011;46978;50.288;28.624;2023-02-20T04:30:21;6.36;;;2.84;;
60336;SDS011;46978;50.288;28.624;2023-02-20T04:31:23;10.09;;;4.41;;
60336;SDS011;46978;50.288;28.624;2023-02-20T04:32:25;9.13;;;3.81;;
60336;SDS011;46978;50.288;28.624;2023-02-20T04:33:27;6.90;;;3.06;;
60336;SDS011;46978;50.288;28.624;2023-02-20T04:34:29;5.17;;;3.20;;
60336;SDS011;46978;50.288;28.624;2023-02-20T04:35:30;12.64;;;5.90;;
60336;SDS011;46978;50.288;28.624;2023-02-20T04:36:32;7.11;;;3.89;;
60336;SDS011;46978;50.288;28.624;2023-02-20T04:37:34;6.64;;;3.22;;
60336;SDS011;46978;50.288;28.624;2023-02-20T04:38:36;7.02;;;2.72;;
60336;SDS011;46978;50.288;28.624;2023-02-20T04:39:37;6.78;;;3.43;;
60336;SDS011;46978;50.288;28.624;2023-02-20T04:40:40;8.09;;;3.65;;
60336;SDS011;46978;50.288;28.624;2023-02-20T04:41:41;7.69;;;3.61;;
60336;SDS011;46978;50.288;28.624;2023-02-20T04:42:43;9.71;;;3.44;;
60336;SDS011;46978;50.288;28.624;2023-02-20T04:43:44;9.66;;;4.04;;
60336;SDS011;46978;50.288;28.624;2023-02-20T04:44:46;6.68;;;3.93;;
60336;SDS011;46978;50.288;28.624;2023-02-20T04:45:48;8.01;;;4.06;;
60336;SDS011;46978;50.288;28.624;2023-02-20T04:46:50;8.09;;;3.48;;
60336;SDS011;46978;50.288;28.624;2023-02-20T04:47:51;7.74;;;3.25;;
60336;SDS011;46978;50.288;28.624;2023-02-20T04:48:53;6.84;;;3.48;;
60336;SDS011;46978;50.288;28.624;2023-02-20T04:49:55;9.15;;;3.26;;
60336;SDS011;46978;50.288;28.624;2023-02-20T04:50:57;6.03;;;3.05;;
60336;SDS011;46978;50.288;28.624;2023-02-20T04:51:59;8.07;;;3.45;;
60336;SDS011;46978;50.288;28.624;2023-02-20T04:53:00;5.99;;;3.16;;
60336;SDS011;46978;50.288;28.624;2023-02-20T04:54:02;5.29;;;2.74;;
60336;SDS011;46978;50.288;28.624;2023-02-20T04:55:04;6.41;;;3.27;;
60336;SDS011;46978;50.288;28.624;2023-02-20T04:56:07;7.09;;;2.98;;
60336;SDS011;46978;50.288;28.624;2023-02-20T04:57:08;9.42;;;3.12;;
60336;SDS011;46978;50.288;28.624;2023-02-20T04:58:10;5.99;;;2.74;;
60336;SDS011;46978;50.288;28.624;2023-02-20T04:59:12;5.84;;;2.75;;
60336;SDS011;46978;50.288;28.624;2023-02-20T05:00:17;5.90;;;2.71;;
60336;SDS011;46978;50.288;28.624;2023-02-20T05:01:19;4.23;;;2.51;;
60336;SDS011;46978;50.288;28.624;2023-02-20T05:02:21;8.09;;;3.04;;
60336;SDS011;46978;50.288;28.624;2023-02-20T05:03:23;6.33;;;2.50;;
60336;SDS011;46978;50.288;28.624;2023-02-20T05:04:29;6.56;;;2.46;;
60336;SDS011;46978;50.288;28.624;2023-02-20T05:05:28;9.47;;;2.77;;
60336;SDS011;46978;50.288;28.624;2023-02-20T05:06:30;4.83;;;2.89;;
60336;SDS011;46978;50.288;28.624;2023-02-20T05:07:32;5.39;;;2.67;;
60336;SDS011;46978;50.288;28.624;2023-02-20T05:08:34;6.67;;;3.07;;
60336;SDS011;46978;50.288;28.624;2023-02-20T05:09:36;7.25;;;3.02;;
60336;SDS011;46978;50.288;28.624;2023-02-20T05:10:39;6.36;;;3.07;;
60336;SDS011;46978;50.288;28.624;2023-02-20T05:11:41;6.16;;;2.64;;
60336;SDS011;46978;50.288;28.624;2023-02-20T05:12:47;7.42;;;2.88;;
60336;SDS011;46978;50.288;28.624;2023-02-20T05:13:49;5.19;;;3.19;;
60336;SDS011;46978;50.288;28.624;2023-02-20T05:14:51;4.79;;;3.06;;
60336;SDS011;46978;50.288;28.624;2023-02-20T05:15:53;7.74;;;3.29;;
60336;SDS011;46978;50.288;28.624;2023-02-20T05:16:55;7.11;;;3.13;;
60336;SDS011;46978;50.288;28.624;2023-02-20T05:17:56;6.87;;;3.16;;
60336;SDS011;46978;50.288;28.624;2023-02-20T05:18:58;6.97;;;3.30;;
60336;SDS011;46978;50.288;28.624;2023-02-20T05:20:00;6.28;;;3.25;;
60336;SDS011;46978;50.288;28.624;2023-02-20T05:21:02;8.43;;;4.49;;
60336;SDS011;46978;50.288;28.624;2023-02-20T05:22:08;10.67;;;4.99;;
60336;SDS011;46978;50.288;28.624;2023-02-20T05:23:12;9.23;;;4.98;;
60336;SDS011;46978;50.288;28.624;2023-02-20T05:24:14;6.58;;;3.83;;
60336;SDS011;46978;50.288;28.624;2023-02-20T05:25:15;7.44;;;3.90;;
60336;SDS011;46978;50.288;28.624;2023-02-20T05:26:19;6.65;;;3.52;;
60336;SDS011;46978;50.288;28.624;2023-02-20T05:27:22;7.34;;;3.66;;
60336;SDS011;46978;50.288;28.624;2023-02-20T05:28:24;6.12;;;3.01;;
60336;SDS011;46978;50.288;28.624;2023-02-20T05:29:26;7.11;;;3.20;;
60336;SDS011;46978;50.288;28.624;2023-02-20T05:30:28;5.29;;;2.60;;
60336;SDS011;46978;50.288;28.624;2023-02-20T05:31:30;6.89;;;3.04;;
60336;SDS011;46978;50.288;28.624;2023-02-20T05:32:31;7.82;;;3.04;;
60336;SDS011;46978;50.288;28.624;2023-02-20T05:33:33;8.38;;;3.42;;
60336;SDS011;46978;50.288;28.624;2023-02-20T05:34:35;9.81;;;3.51;;
60336;SDS011;46978;50.288;28.624;2023-02-20T05:35:36;7.53;;;3.14;;
60336;SDS011;46978;50.288;28.624;2023-02-20T05:36:38;6.81;;;3.48;;
60336;SDS011;46978;50.288;28.624;2023-02-20T05:37:40;6.65;;;3.06;;
60336;SDS011;46978;50.288;28.624;2023-02-20T05:38:41;6.13;;;3.27;;
60336;SDS011;46978;50.288;28.624;2023-02-20T05:39:44;5.86;;;3.04;;
60336;SDS011;46978;50.288;28.624;2023-02-20T05:40:46;6.21;;;2.92;;
60336;SDS011;46978;50.288;28.624;2023-02-20T05:41:48;6.52;;;3.40;;
60336;SDS011;46978;50.288;28.624;2023-02-20T05:42:50;7.56;;;3.81;;
60336;SDS011;46978;50.288;28.624;2023-02-20T05:43:51;7.31;;;3.71;;
60336;SDS011;46978;50.288;28.624;2023-02-20T05:44:53;8.90;;;3.66;;
60336;SDS011;46978;50.288;28.624;2023-02-20T05:45:54;5.90;;;3.27;;
60336;SDS011;46978;50.288;28.624;2023-02-20T05:46:56;8.78;;;4.14;;
60336;SDS011;46978;50.288;28.624;2023-02-20T05:47:58;10.79;;;4.15;;
60336;SDS011;46978;50.288;28.624;2023-02-20T05:49:00;8.21;;;3.56;;
60336;SDS011;46978;50.288;28.624;2023-02-20T05:50:01;10.50;;;3.95;;
60336;SDS011;46978;50.288;28.624;2023-02-20T05:51:03;9.55;;;4.09;;
60336;SDS011;46978;50.288;28.624;2023-02-20T05:52:05;9.22;;;4.25;;
60336;SDS011;46978;50.288;28.624;2023-02-20T05:53:07;7.68;;;3.57;;
60336;SDS011;46978;50.288;28.624;2023-02-20T05:54:08;8.76;;;3.75;;
60336;SDS011;46978;50.288;28.624;2023-02-20T05:55:10;8.18;;;3.60;;
60336;SDS011;46978;50.288;28.624;2023-02-20T05:56:12;8.11;;;3.71;;
60336;SDS011;46978;50.288;28.624;2023-02-20T05:57:14;7.33;;;3.35;;
60336;SDS011;46978;50.288;28.624;2023-02-20T05:58:16;9.15;;;3.59;;
60336;SDS011;46978;50.288;28.624;2023-02-20T05:59:19;7.22;;;3.59;;
60336;SDS011;46978;50.288;28.624;2023-02-20T06:00:24;9.15;;;3.66;;
60336;SDS011;46978;50.288;28.624;2023-02-20T06:01:27;5.96;;;3.25;;
60336;SDS011;46978;50.288;28.624;2023-02-20T06:02:31;7.98;;;4.09;;
60336;SDS011;46978;50.288;28.624;2023-02-20T06:03:33;13.72;;;4.60;;
60336;SDS011;46978;50.288;28.624;2023-02-20T06:04:34;9.01;;;3.92;;
60336;SDS011;46978;50.288;28.624;2023-02-20T06:05:36;8.76;;;3.99;;
60336;SDS011;46978;50.288;28.624;2023-02-20T06:06:39;10.41;;;4.19;;
60336;SDS011;46978;50.288;28.624;2023-02-20T06:07:42;7.43;;;3.89;;
60336;SDS011;46978;50.288;28.624;2023-02-20T06:08:45;9.03;;;3.94;;
60336;SDS011;46978;50.288;28.624;2023-02-20T06:09:47;7.54;;;3.93;;
60336;SDS011;46978;50.288;28.624;2023-02-20T06:10:49;8.71;;;4.30;;
60336;SDS011;46978;50.288;28.624;2023-02-20T06:11:55;8.41;;;3.78;;
60336;SDS011;46978;50.288;28.624;2023-02-20T06:12:56;8.34;;;4.09;;
60336;SDS011;46978;50.288;28.624;2023-02-20T06:13:58;8.99;;;4.13;;
60336;SDS011;46978;50.288;28.624;2023-02-20T06:14:59;8.73;;;3.49;;
60336;SDS011;46978;50.288;28.624;2023-02-20T06:16:01;8.71;;;3.45;;
60336;SDS011;46978;50.288;28.624;2023-02-20T06:17:03;9.86;;;3.71;;
60336;SDS011;46978;50.288;28.624;2023-02-20T06:18:04;7.34;;;3.29;;
60336;SDS011;46978;50.288;28.624;2023-02-20T06:19:06;9.57;;;3.25;;
60336;SDS011;46978;50.288;28.624;2023-02-20T06:20:09;10.32;;;3.46;;
60336;SDS011;46978;50.288;28.624;2023-02-20T06:21:11;7.24;;;3.63;;
60336;SDS011;46978;50.288;28.624;2023-02-20T06:22:12;7.69;;;3.32;;
60336;SDS011;46978;50.288;28.624;2023-02-20T06:23:16;7.74;;;3.31;;
60336;SDS011;46978;50.288;28.624;2023-02-20T06:24:17;5.44;;;2.93;;
60336;SDS011;46978;50.288;28.624;2023-02-20T06:25:20;6.03;;;2.90;;
60336;SDS011;46978;50.288;28.624;2023-02-20T06:26:23;13.10;;;3.74;;
60336;SDS011;46978;50.288;28.624;2023-02-20T06:27:25;7.76;;;3.41;;
60336;SDS011;46978;50.288;28.624;2023-02-20T06:28:28;9.33;;;3.39;;
60336;SDS011;46978;50.288;28.624;2023-02-20T06:29:32;7.34;;;3.28;;
60336;SDS011;46978;50.288;28.624;2023-02-20T06:30:34;8.24;;;3.26;;
60336;SDS011;46978;50.288;28.624;2023-02-20T06:31:36;9.21;;;3.58;;
60336;SDS011;46978;50.288;28.624;2023-02-20T06:32:37;7.59;;;3.24;;
60336;SDS011;46978;50.288;28.624;2023-02-20T06:33:40;8.89;;;4.37;;
60336;SDS011;46978;50.288;28.624;2023-02-20T06:34:46;6.31;;;3.17;;
60336;SDS011;46978;50.288;28.624;2023-02-20T06:35:47;9.13;;;3.22;;
60336;SDS011;46978;50.288;28.624;2023-02-20T06:36:50;8.25;;;3.20;;
60336;SDS011;46978;50.288;28.624;2023-02-20T06:37:51;11.63;;;5.03;;
60336;SDS011;46978;50.288;28.624;2023-02-20T06:38:53;10.02;;;4.34;;
60336;SDS011;46978;50.288;28.624;2023-02-20T06:39:55;8.03;;;3.43;;
60336;SDS011;46978;50.288;28.624;2023-02-20T06:40:57;7.94;;;3.95;;
60336;SDS011;46978;50.288;28.624;2023-02-20T06:41:59;8.34;;;4.01;;
60336;SDS011;46978;50.288;28.624;2023-02-20T06:43:00;8.75;;;3.41;;
60336;SDS011;46978;50.288;28.624;2023-02-20T06:44:03;8.68;;;3.63;;
60336;SDS011;46978;50.288;28.624;2023-02-20T06:45:05;7.53;;;3.43;;
60336;SDS011;46978;50.288;28.624;2023-02-20T06:46:08;7.28;;;4.04;;
60336;SDS011;46978;50.288;28.624;2023-02-20T06:47:10;8.75;;;3.95;;
60336;SDS011;46978;50.288;28.624;2023-02-20T06:48:12;6.15;;;2.96;;
60336;SDS011;46978;50.288;28.624;2023-02-20T06:49:14;8.05;;;3.09;;